Terminal Aerodrome Forecast
Issued by NWS Birmingham, AL

Home | Current Version | Previous Version | Text Only | Print | Product List | Glossary On
Versions: 1 2 3 4 5 6 7 8 9 10 11 12 13 14 15
000
FTUS44 KBMX 211800 AAA
TAFBHM
TAF AMD
KBHM 211820Z 2118/2218 09007KT 6SM FU FEW010 BKN150
     FM220100 11003KT P6SM BKN150
     FM221500 11007KT P6SM SCT150=

USA.gov is the U.S. government's official web portal to all federal, state and local government web resources and services.